sensor_id;sensor_type;location;lat;lon;timestamp;temperature;humidity
5007;DHT22;2522;50.972;11.046;2022-07-15T03:31:37;15.30;99.40
5007;DHT22;2522;50.972;11.046;2022-07-15T03:34:03;15.30;99.40
5007;DHT22;2522;50.972;11.046;2022-07-15T03:36:30;15.30;99.50
5007;DHT22;2522;50.972;11.046;2022-07-15T03:38:57;15.40;99.60
5007;DHT22;2522;50.972;11.046;2022-07-15T03:41:24;15.50;99.70
5007;DHT22;2522;50.972;11.046;2022-07-15T03:43:54;15.40;99.70
5007;DHT22;2522;50.972;11.046;2022-07-15T03:46:21;15.60;99.90
5007;DHT22;2522;50.972;11.046;2022-07-15T03:48:49;15.50;99.80
5007;DHT22;2522;50.972;11.046;2022-07-15T03:51:16;15.50;99.90
5007;DHT22;2522;50.972;11.046;2022-07-15T03:53:43;15.50;99.90
5007;DHT22;2522;50.972;11.046;2022-07-15T03:56:10;15.60;99.90
5007;DHT22;2522;50.972;11.046;2022-07-15T03:58:36;15.60;99.90
5007;DHT22;2522;50.972;11.046;2022-07-15T04:01:03;15.60;99.90
5007;DHT22;2522;50.972;11.046;2022-07-15T04:03:30;15.60;99.90
5007;DHT22;2522;50.972;11.046;2022-07-15T04:06:00;15.60;99.90
5007;DHT22;2522;50.972;11.046;2022-07-15T04:08:29;15.70;99.90
5007;DHT22;2522;50.972;11.046;2022-07-15T04:10:56;15.70;99.90
5007;DHT22;2522;50.972;11.046;2022-07-15T04:13:23;15.80;99.90
5007;DHT22;2522;50.972;11.046;2022-07-15T04:15:50;15.80;99.90
5007;DHT22;2522;50.972;11.046;2022-07-15T04:18:17;15.80;99.90
5007;DHT22;2522;50.972;11.046;2022-07-15T04:20:44;15.80;99.90
5007;DHT22;2522;50.972;11.046;2022-07-15T04:23:12;15.80;99.90
5007;DHT22;2522;50.972;11.046;2022-07-15T04:25:39;15.80;99.90
5007;DHT22;2522;50.972;11.046;2022-07-15T04:28:06;15.80;99.90
5007;DHT22;2522;50.972;11.046;2022-07-15T04:30:36;15.90;99.90
5007;DHT22;2522;50.972;11.046;2022-07-15T04:33:03;15.90;99.90
5007;DHT22;2522;50.972;11.046;2022-07-15T04:35:29;16.00;99.90
5007;DHT22;2522;50.972;11.046;2022-07-15T04:37:56;16.10;99.90
5007;DHT22;2522;50.972;11.046;2022-07-15T04:40:24;16.00;99.90
5007;DHT22;2522;50.972;11.046;2022-07-15T04:42:51;16.00;99.90
5007;DHT22;2522;50.972;11.046;2022-07-15T04:45:18;16.10;99.90
5007;DHT22;2522;50.972;11.046;2022-07-15T04:47:45;16.10;99.90
5007;DHT22;2522;50.972;11.046;2022-07-15T04:50:13;16.10;99.90
5007;DHT22;2522;50.972;11.046;2022-07-15T04:52:57;16.10;99.90
5007;DHT22;2522;50.972;11.046;2022-07-15T04:55:25;16.10;99.90
5007;DHT22;2522;50.972;11.046;2022-07-15T04:57:52;16.20;99.90
5007;DHT22;2522;50.972;11.046;2022-07-15T05:00:19;16.20;99.90
5007;DHT22;2522;50.972;11.046;2022-07-15T05:02:46;16.20;99.90
5007;DHT22;2522;50.972;11.046;2022-07-15T05:05:13;16.30;99.90
5007;DHT22;2522;50.972;11.046;2022-07-15T05:07:40;16.30;99.90
5007;DHT22;2522;50.972;11.046;2022-07-15T05:10:08;16.30;99.90
5007;DHT22;2522;50.972;11.046;2022-07-15T05:12:38;16.30;99.90
5007;DHT22;2522;50.972;11.046;2022-07-15T05:15:05;16.30;99.90
5007;DHT22;2522;50.972;11.046;2022-07-15T05:17:33;16.30;99.90
5007;DHT22;2522;50.972;11.046;2022-07-15T05:20:00;16.30;99.90
5007;DHT22;2522;50.972;11.046;2022-07-15T05:22:27;16.40;99.90
5007;DHT22;2522;50.972;11.046;2022-07-15T05:24:54;16.30;99.90
5007;DHT22;2522;50.972;11.046;2022-07-15T05:27:21;16.30;99.90
5007;DHT22;2522;50.972;11.046;2022-07-15T05:29:49;16.30;99.90
5007;DHT22;2522;50.972;11.046;2022-07-15T05:32:16;16.40;99.90
5007;DHT22;2522;50.972;11.046;2022-07-15T05:34:43;16.30;99.90
5007;DHT22;2522;50.972;11.046;2022-07-15T05:37:09;16.30;99.90
5007;DHT22;2522;50.972;11.046;2022-07-15T05:39:37;16.30;99.90
5007;DHT22;2522;50.972;11.046;2022-07-15T05:42:18;16.30;99.90
5007;DHT22;2522;50.972;11.046;2022-07-15T05:44:45;16.30;99.90
5007;DHT22;2522;50.972;11.046;2022-07-15T05:47:14;16.40;99.90
5007;DHT22;2522;50.972;11.046;2022-07-15T05:49:40;16.40;99.90
5007;DHT22;2522;50.972;11.046;2022-07-15T05:52:08;16.50;99.90
5007;DHT22;2522;50.972;11.046;2022-07-15T05:54:35;16.40;99.90
5007;DHT22;2522;50.972;11.046;2022-07-15T05:57:02;16.50;99.90
5007;DHT22;2522;50.972;11.046;2022-07-15T05:59:29;16.50;99.90
5007;DHT22;2522;50.972;11.046;2022-07-15T06:01:57;16.60;99.90
5007;DHT22;2522;50.972;11.046;2022-07-15T06:04:25;16.60;99.90
5007;DHT22;2522;50.972;11.046;2022-07-15T06:06:53;16.70;99.90
5007;DHT22;2522;50.972;11.046;2022-07-15T06:09:19;16.80;99.90
5007;DHT22;2522;50.972;11.046;2022-07-15T06:11:46;16.90;99.90
5007;DHT22;2522;50.972;11.046;2022-07-15T06:14:13;17.10;99.90
5007;DHT22;2522;50.972;11.046;2022-07-15T06:16:40;17.20;99.90
5007;DHT22;2522;50.972;11.046;2022-07-15T06:19:07;17.30;99.90
5007;DHT22;2522;50.972;11.046;2022-07-15T06:21:36;17.40;99.90
5007;DHT22;2522;50.972;11.046;2022-07-15T06:24:03;17.60;99.90
5007;DHT22;2522;50.972;11.046;2022-07-15T06:26:30;17.70;99.90
5007;DHT22;2522;50.972;11.046;2022-07-15T06:28:58;17.80;99.90
5007;DHT22;2522;50.972;11.046;2022-07-15T06:31:26;18.00;99.90
5007;DHT22;2522;50.972;11.046;2022-07-15T06:33:53;18.20;99.80
5007;DHT22;2522;50.972;11.046;2022-07-15T06:36:20;18.30;99.60
5007;DHT22;2522;50.972;11.046;2022-07-15T06:38:48;18.40;99.50
5007;DHT22;2522;50.972;11.046;2022-07-15T06:41:15;18.70;99.30
5007;DHT22;2522;50.972;11.046;2022-07-15T06:43:43;18.60;99.10
5007;DHT22;2522;50.972;11.046;2022-07-15T06:46:10;18.60;99.00
5007;DHT22;2522;50.972;11.046;2022-07-15T06:48:36;18.70;98.90
5007;DHT22;2522;50.972;11.046;2022-07-15T06:51:05;18.70;98.80
5007;DHT22;2522;50.972;11.046;2022-07-15T06:53:53;18.80;98.60
5007;DHT22;2522;50.972;11.046;2022-07-15T06:56:20;18.70;97.80
5007;DHT22;2522;50.972;11.046;2022-07-15T06:58:47;18.60;98.00
5007;DHT22;2522;50.972;11.046;2022-07-15T07:01:14;18.70;98.10
5007;DHT22;2522;50.972;11.046;2022-07-15T07:03:41;18.80;98.00
5007;DHT22;2522;50.972;11.046;2022-07-15T07:06:10;18.90;97.60
5007;DHT22;2522;50.972;11.046;2022-07-15T07:08:37;19.00;97.60
5007;DHT22;2522;50.972;11.046;2022-07-15T07:11:05;19.10;97.40
5007;DHT22;2522;50.972;11.046;2022-07-15T07:13:32;19.10;97.20
5007;DHT22;2522;50.972;11.046;2022-07-15T07:15:59;19.00;97.20
5007;DHT22;2522;50.972;11.046;2022-07-15T07:18:27;18.90;97.30
5007;DHT22;2522;50.972;11.046;2022-07-15T07:20:54;18.80;97.50
5007;DHT22;2522;50.972;11.046;2022-07-15T07:23:22;18.80;97.60
5007;DHT22;2522;50.972;11.046;2022-07-15T07:25:52;18.80;97.80
5007;DHT22;2522;50.972;11.046;2022-07-15T07:28:20;18.90;97.70
5007;DHT22;2522;50.972;11.046;2022-07-15T07:30:47;18.90;97.60
5007;DHT22;2522;50.972;11.046;2022-07-15T07:33:15;18.90;97.60
5007;DHT22;2522;50.972;11.046;2022-07-15T07:35:42;19.00;97.70
5007;DHT22;2522;50.972;11.046;2022-07-15T07:38:09;19.10;97.60
5007;DHT22;2522;50.972;11.046;2022-07-15T07:40:36;19.10;97.60
5007;DHT22;2522;50.972;11.046;2022-07-15T07:43:03;18.90;97.70
5007;DHT22;2522;50.972;11.046;2022-07-15T07:45:31;18.90;97.80
5007;DHT22;2522;50.972;11.046;2022-07-15T07:47:58;18.80;97.90
5007;DHT22;2522;50.972;11.046;2022-07-15T07:50:25;18.50;98.00
5007;DHT22;2522;50.972;11.046;2022-07-15T07:52:54;18.50;98.20
5007;DHT22;2522;50.972;11.046;2022-07-15T07:55:21;18.60;98.20
5007;DHT22;2522;50.972;11.046;2022-07-15T07:57:49;18.70;98.20
5007;DHT22;2522;50.972;11.046;2022-07-15T08:00:16;18.90;98.10
5007;DHT22;2522;50.972;11.046;2022-07-15T08:02:45;18.80;97.80
5007;DHT22;2522;50.972;11.046;2022-07-15T08:05:12;18.90;97.90
5007;DHT22;2522;50.972;11.046;2022-07-15T08:07:40;18.90;97.90
5007;DHT22;2522;50.972;11.046;2022-07-15T08:10:08;19.00;97.80
5007;DHT22;2522;50.972;11.046;2022-07-15T08:12:36;18.90;97.70
5007;DHT22;2522;50.972;11.046;2022-07-15T08:15:04;18.90;97.80
5007;DHT22;2522;50.972;11.046;2022-07-15T08:17:31;18.90;97.70
5007;DHT22;2522;50.972;11.046;2022-07-15T08:19:59;19.00;97.80
5007;DHT22;2522;50.972;11.046;2022-07-15T08:22:26;19.30;97.70
5007;DHT22;2522;50.972;11.046;2022-07-15T08:24:53;19.30;97.40
5007;DHT22;2522;50.972;11.046;2022-07-15T08:27:20;19.50;97.20
5007;DHT22;2522;50.972;11.046;2022-07-15T08:29:49;19.50;97.20
5007;DHT22;2522;50.972;11.046;2022-07-15T08:32:16;19.70;97.00
5007;DHT22;2522;50.972;11.046;2022-07-15T08:34:43;19.70;96.40
5007;DHT22;2522;50.972;11.046;2022-07-15T08:37:11;19.70;96.40
5007;DHT22;2522;50.972;11.046;2022-07-15T08:39:38;19.70;96.20
5007;DHT22;2522;50.972;11.046;2022-07-15T08:42:05;19.80;96.10
5007;DHT22;2522;50.972;11.046;2022-07-15T08:44:32;19.90;95.90
5007;DHT22;2522;50.972;11.046;2022-07-15T08:47:03;20.10;95.80
5007;DHT22;2522;50.972;11.046;2022-07-15T08:49:32;20.30;95.50
5007;DHT22;2522;50.972;11.046;2022-07-15T08:52:00;20.50;95.20
5007;DHT22;2522;50.972;11.046;2022-07-15T08:54:31;20.70;94.90
5007;DHT22;2522;50.972;11.046;2022-07-15T08:56:59;20.80;94.40
5007;DHT22;2522;50.972;11.046;2022-07-15T08:59:25;21.00;94.20
5007;DHT22;2522;50.972;11.046;2022-07-15T09:01:52;21.10;93.60
5007;DHT22;2522;50.972;11.046;2022-07-15T09:04:20;21.00;93.30
5007;DHT22;2522;50.972;11.046;2022-07-15T09:06:50;21.10;92.70
5007;DHT22;2522;50.972;11.046;2022-07-15T09:09:25;21.00;92.30
5007;DHT22;2522;50.972;11.046;2022-07-15T09:12:00;20.90;92.20
5007;DHT22;2522;50.972;11.046;2022-07-15T09:14:29;21.00;92.20
5007;DHT22;2522;50.972;11.046;2022-07-15T09:17:18;21.10;92.30
5007;DHT22;2522;50.972;11.046;2022-07-15T09:20:06;21.20;91.80
5007;DHT22;2522;50.972;11.046;2022-07-15T09:22:49;21.30;91.20
5007;DHT22;2522;50.972;11.046;2022-07-15T09:25:19;21.30;91.20
5007;DHT22;2522;50.972;11.046;2022-07-15T09:27:48;21.30;91.30
5007;DHT22;2522;50.972;11.046;2022-07-15T09:30:18;21.50;90.90
5007;DHT22;2522;50.972;11.046;2022-07-15T09:33:05;21.70;90.70
5007;DHT22;2522;50.972;11.046;2022-07-15T09:35:49;21.80;90.20
5007;DHT22;2522;50.972;11.046;2022-07-15T09:38:34;21.80;89.50
5007;DHT22;2522;50.972;11.046;2022-07-15T09:41:01;21.60;89.10
5007;DHT22;2522;50.972;11.046;2022-07-15T09:43:30;21.50;89.70
5007;DHT22;2522;50.972;11.046;2022-07-15T09:45:58;21.40;89.00
5007;DHT22;2522;50.972;11.046;2022-07-15T09:48:26;21.20;89.10
5007;DHT22;2522;50.972;11.046;2022-07-15T09:50:58;21.10;89.80
5007;DHT22;2522;50.972;11.046;2022-07-15T09:53:26;21.10;90.00
5007;DHT22;2522;50.972;11.046;2022-07-15T09:55:53;21.10;89.60
5007;DHT22;2522;50.972;11.046;2022-07-15T09:58:21;21.10;89.70
5007;DHT22;2522;50.972;11.046;2022-07-15T10:00:50;21.00;90.10
5007;DHT22;2522;50.972;11.046;2022-07-15T10:03:18;21.00;90.00
5007;DHT22;2522;50.972;11.046;2022-07-15T10:05:51;20.80;89.60
5007;DHT22;2522;50.972;11.046;2022-07-15T10:08:19;20.70;89.70
5007;DHT22;2522;50.972;11.046;2022-07-15T10:10:46;20.80;89.80
5007;DHT22;2522;50.972;11.046;2022-07-15T10:13:31;20.70;89.70
5007;DHT22;2522;50.972;11.046;2022-07-15T10:16:11;20.70;90.10
5007;DHT22;2522;50.972;11.046;2022-07-15T10:18:55;20.80;90.20
5007;DHT22;2522;50.972;11.046;2022-07-15T10:21:35;21.00;90.10
5007;DHT22;2522;50.972;11.046;2022-07-15T10:24:23;21.30;89.30
5007;DHT22;2522;50.972;11.046;2022-07-15T10:27:05;21.50;87.40
5007;DHT22;2522;50.972;11.046;2022-07-15T10:29:36;21.40;86.70
5007;DHT22;2522;50.972;11.046;2022-07-15T10:32:04;21.50;86.20
5007;DHT22;2522;50.972;11.046;2022-07-15T10:34:32;21.50;85.50
5007;DHT22;2522;50.972;11.046;2022-07-15T10:37:05;21.50;85.60
5007;DHT22;2522;50.972;11.046;2022-07-15T10:39:52;21.60;85.30
5007;DHT22;2522;50.972;11.046;2022-07-15T10:42:19;21.80;85.00
5007;DHT22;2522;50.972;11.046;2022-07-15T10:45:04;22.00;84.90
5007;DHT22;2522;50.972;11.046;2022-07-15T10:47:34;22.10;84.40
5007;DHT22;2522;50.972;11.046;2022-07-15T10:50:39;22.10;85.00
5007;DHT22;2522;50.972;11.046;2022-07-15T10:53:17;22.20;83.60
5007;DHT22;2522;50.972;11.046;2022-07-15T10:55:45;22.10;81.40
5007;DHT22;2522;50.972;11.046;2022-07-15T10:58:12;22.00;81.20
5007;DHT22;2522;50.972;11.046;2022-07-15T11:00:42;21.90;81.00
5007;DHT22;2522;50.972;11.046;2022-07-15T11:03:12;22.00;80.70
5007;DHT22;2522;50.972;11.046;2022-07-15T11:06:01;22.30;79.40
5007;DHT22;2522;50.972;11.046;2022-07-15T11:08:49;22.40;79.50
5007;DHT22;2522;50.972;11.046;2022-07-15T11:11:45;22.60;78.00
5007;DHT22;2522;50.972;11.046;2022-07-15T11:14:42;22.70;77.70
5007;DHT22;2522;50.972;11.046;2022-07-15T11:17:09;22.80;77.10
5007;DHT22;2522;50.972;11.046;2022-07-15T11:19:38;22.50;77.00
5007;DHT22;2522;50.972;11.046;2022-07-15T11:22:08;22.40;77.50
5007;DHT22;2522;50.972;11.046;2022-07-15T11:24:36;22.50;78.20
5007;DHT22;2522;50.972;11.046;2022-07-15T11:27:03;22.60;76.60
5007;DHT22;2522;50.972;11.046;2022-07-15T11:29:44;22.30;75.60
5007;DHT22;2522;50.972;11.046;2022-07-15T11:32:12;22.00;75.70
5007;DHT22;2522;50.972;11.046;2022-07-15T11:34:42;22.00;76.60
5007;DHT22;2522;50.972;11.046;2022-07-15T11:37:10;22.20;76.70
5007;DHT22;2522;50.972;11.046;2022-07-15T11:39:38;22.30;76.50
5007;DHT22;2522;50.972;11.046;2022-07-15T11:42:05;22.50;76.60
5007;DHT22;2522;50.972;11.046;2022-07-15T11:44:50;22.80;76.40
5007;DHT22;2522;50.972;11.046;2022-07-15T11:47:17;23.30;76.10
5007;DHT22;2522;50.972;11.046;2022-07-15T11:49:46;23.40;74.00
5007;DHT22;2522;50.972;11.046;2022-07-15T11:52:22;23.40;73.40
5007;DHT22;2522;50.972;11.046;2022-07-15T11:54:49;23.20;72.20
5007;DHT22;2522;50.972;11.046;2022-07-15T11:57:16;23.10;72.00
5007;DHT22;2522;50.972;11.046;2022-07-15T11:59:54;23.00;71.80
5007;DHT22;2522;50.972;11.046;2022-07-15T12:02:23;22.80;71.60
5007;DHT22;2522;50.972;11.046;2022-07-15T12:05:01;22.70;71.70
5007;DHT22;2522;50.972;11.046;2022-07-15T12:07:41;22.50;71.40
5007;DHT22;2522;50.972;11.046;2022-07-15T12:10:09;22.60;71.80
5007;DHT22;2522;50.972;11.046;2022-07-15T12:12:41;22.80;70.90
5007;DHT22;2522;50.972;11.046;2022-07-15T12:15:10;23.00;70.20
5007;DHT22;2522;50.972;11.046;2022-07-15T12:17:39;23.20;69.30
5007;DHT22;2522;50.972;11.046;2022-07-15T12:20:11;23.20;68.20
5007;DHT22;2522;50.972;11.046;2022-07-15T12:23:06;23.10;68.20
5007;DHT22;2522;50.972;11.046;2022-07-15T12:25:33;23.10;67.90
5007;DHT22;2522;50.972;11.046;2022-07-15T12:28:00;23.10;67.40
5007;DHT22;2522;50.972;11.046;2022-07-15T12:30:34;23.00;66.90
5007;DHT22;2522;50.972;11.046;2022-07-15T12:33:16;22.90;67.10
5007;DHT22;2522;50.972;11.046;2022-07-15T12:35:45;23.00;68.10
5007;DHT22;2522;50.972;11.046;2022-07-15T12:38:25;23.30;67.90
5007;DHT22;2522;50.972;11.046;2022-07-15T12:40:53;23.30;67.10
5007;DHT22;2522;50.972;11.046;2022-07-15T12:43:20;23.30;67.20
5007;DHT22;2522;50.972;11.046;2022-07-15T12:45:48;23.20;67.00
5007;DHT22;2522;50.972;11.046;2022-07-15T12:48:15;23.10;66.60
5007;DHT22;2522;50.972;11.046;2022-07-15T12:50:59;23.10;66.20
5007;DHT22;2522;50.972;11.046;2022-07-15T12:53:27;22.90;66.20
5007;DHT22;2522;50.972;11.046;2022-07-15T12:56:03;23.00;66.90
5007;DHT22;2522;50.972;11.046;2022-07-15T12:58:31;23.30;67.10
5007;DHT22;2522;50.972;11.046;2022-07-15T13:01:05;23.30;66.90
5007;DHT22;2522;50.972;11.046;2022-07-15T13:03:33;23.40;65.80
5007;DHT22;2522;50.972;11.046;2022-07-15T13:06:01;23.20;65.80
5007;DHT22;2522;50.972;11.046;2022-07-15T13:08:29;23.00;65.80
5007;DHT22;2522;50.972;11.046;2022-07-15T13:10:58;22.90;66.30
5007;DHT22;2522;50.972;11.046;2022-07-15T13:13:28;22.80;66.30
5007;DHT22;2522;50.972;11.046;2022-07-15T13:15:55;22.80;66.90
5007;DHT22;2522;50.972;11.046;2022-07-15T13:18:22;23.10;66.50
5007;DHT22;2522;50.972;11.046;2022-07-15T13:20:50;23.20;64.60
5007;DHT22;2522;50.972;11.046;2022-07-15T13:23:19;23.10;65.50
5007;DHT22;2522;50.972;11.046;2022-07-15T13:25:46;23.20;64.80
5007;DHT22;2522;50.972;11.046;2022-07-15T13:28:13;23.10;63.90
5007;DHT22;2522;50.972;11.046;2022-07-15T13:30:41;22.90;64.40
5007;DHT22;2522;50.972;11.046;2022-07-15T13:33:07;22.90;64.30
5007;DHT22;2522;50.972;11.046;2022-07-15T13:35:35;22.80;63.80
5007;DHT22;2522;50.972;11.046;2022-07-15T13:38:02;22.70;64.10
5007;DHT22;2522;50.972;11.046;2022-07-15T13:40:30;22.80;64.70
5007;DHT22;2522;50.972;11.046;2022-07-15T13:42:57;22.90;63.70
5007;DHT22;2522;50.972;11.046;2022-07-15T13:45:24;22.90;63.00
5007;DHT22;2522;50.972;11.046;2022-07-15T13:47:52;23.00;63.10
5007;DHT22;2522;50.972;11.046;2022-07-15T13:50:19;23.00;63.30
5007;DHT22;2522;50.972;11.046;2022-07-15T13:53:03;23.00;63.20
5007;DHT22;2522;50.972;11.046;2022-07-15T13:55:31;23.00;62.30
5007;DHT22;2522;50.972;11.046;2022-07-15T13:57:58;23.00;62.40
5007;DHT22;2522;50.972;11.046;2022-07-15T14:00:25;23.00;62.60
5007;DHT22;2522;50.972;11.046;2022-07-15T14:02:54;23.00;62.20
5007;DHT22;2522;50.972;11.046;2022-07-15T14:05:21;22.80;62.40
5007;DHT22;2522;50.972;11.046;2022-07-15T14:07:48;22.70;63.10
5007;DHT22;2522;50.972;11.046;2022-07-15T14:10:15;22.70;63.20
5007;DHT22;2522;50.972;11.046;2022-07-15T14:12:44;22.70;63.20
5007;DHT22;2522;50.972;11.046;2022-07-15T14:15:10;22.70;63.60
5007;DHT22;2522;50.972;11.046;2022-07-15T14:17:37;22.80;63.60
5007;DHT22;2522;50.972;11.046;2022-07-15T14:20:05;22.90;63.40
5007;DHT22;2522;50.972;11.046;2022-07-15T14:22:33;22.90;63.50
5007;DHT22;2522;50.972;11.046;2022-07-15T14:25:03;22.90;63.10
5007;DHT22;2522;50.972;11.046;2022-07-15T14:27:33;22.90;63.40
5007;DHT22;2522;50.972;11.046;2022-07-15T14:30:02;22.90;63.10
5007;DHT22;2522;50.972;11.046;2022-07-15T14:32:29;22.90;63.60
5007;DHT22;2522;50.972;11.046;2022-07-15T14:34:56;23.10;63.60
5007;DHT22;2522;50.972;11.046;2022-07-15T14:37:23;23.20;62.70
5007;DHT22;2522;50.972;11.046;2022-07-15T14:39:50;23.10;62.30
5007;DHT22;2522;50.972;11.046;2022-07-15T14:42:16;23.10;62.50
5007;DHT22;2522;50.972;11.046;2022-07-15T14:44:43;22.90;62.10
5007;DHT22;2522;50.972;11.046;2022-07-15T14:47:11;22.80;62.40
5007;DHT22;2522;50.972;11.046;2022-07-15T14:49:38;22.60;62.60
5007;DHT22;2522;50.972;11.046;2022-07-15T14:52:05;22.60;62.90
5007;DHT22;2522;50.972;11.046;2022-07-15T14:54:32;22.80;62.90
5007;DHT22;2522;50.972;11.046;2022-07-15T14:56:59;22.80;62.40
5007;DHT22;2522;50.972;11.046;2022-07-15T14:59:25;22.80;62.40
5007;DHT22;2522;50.972;11.046;2022-07-15T15:01:52;22.60;62.20
5007;DHT22;2522;50.972;11.046;2022-07-15T15:04:21;22.60;63.00
5007;DHT22;2522;50.972;11.046;2022-07-15T15:06:49;22.70;63.20
5007;DHT22;2522;50.972;11.046;2022-07-15T15:09:15;22.90;63.00
5007;DHT22;2522;50.972;11.046;2022-07-15T15:11:42;23.10;62.50
5007;DHT22;2522;50.972;11.046;2022-07-15T15:14:09;23.10;62.20
5007;DHT22;2522;50.972;11.046;2022-07-15T15:16:39;23.10;62.00
5007;DHT22;2522;50.972;11.046;2022-07-15T15:19:05;23.10;61.70
5007;DHT22;2522;50.972;11.046;2022-07-15T15:21:34;22.90;61.50
5007;DHT22;2522;50.972;11.046;2022-07-15T15:24:02;22.80;61.50
5007;DHT22;2522;50.972;11.046;2022-07-15T15:26:29;22.80;61.80
5007;DHT22;2522;50.972;11.046;2022-07-15T15:28:59;22.70;61.90
5007;DHT22;2522;50.972;11.046;2022-07-15T15:31:26;22.70;61.90
5007;DHT22;2522;50.972;11.046;2022-07-15T15:33:53;22.80;61.90
5007;DHT22;2522;50.972;11.046;2022-07-15T15:36:20;22.90;62.20
5007;DHT22;2522;50.972;11.046;2022-07-15T15:38:49;22.90;61.90
5007;DHT22;2522;50.972;11.046;2022-07-15T15:41:15;23.10;61.90
5007;DHT22;2522;50.972;11.046;2022-07-15T15:43:42;23.00;61.70
5007;DHT22;2522;50.972;11.046;2022-07-15T15:46:09;22.90;62.30
5007;DHT22;2522;50.972;11.046;2022-07-15T15:48:36;22.80;62.30
5007;DHT22;2522;50.972;11.046;2022-07-15T15:51:03;22.80;62.40
5007;DHT22;2522;50.972;11.046;2022-07-15T15:53:30;22.70;62.70
5007;DHT22;2522;50.972;11.046;2022-07-15T15:55:58;22.70;62.40
5007;DHT22;2522;50.972;11.046;2022-07-15T15:58:26;22.70;61.90
5007;DHT22;2522;50.972;11.046;2022-07-15T16:00:56;22.70;61.80
5007;DHT22;2522;50.972;11.046;2022-07-15T16:03:28;22.70;62.30
5007;DHT22;2522;50.972;11.046;2022-07-15T16:05:55;22.60;62.90
5007;DHT22;2522;50.972;11.046;2022-07-15T16:08:24;22.40;62.90
5007;DHT22;2522;50.972;11.046;2022-07-15T16:10:53;22.30;63.00
5007;DHT22;2522;50.972;11.046;2022-07-15T16:13:21;22.40;63.60
5007;DHT22;2522;50.972;11.046;2022-07-15T16:15:48;22.50;63.40
5007;DHT22;2522;50.972;11.046;2022-07-15T16:18:15;22.50;61.70
5007;DHT22;2522;50.972;11.046;2022-07-15T16:20:42;22.40;61.60
5007;DHT22;2522;50.972;11.046;2022-07-15T16:23:12;22.50;61.60
5007;DHT22;2522;50.972;11.046;2022-07-15T16:25:38;22.60;61.60
5007;DHT22;2522;50.972;11.046;2022-07-15T16:28:06;22.70;61.60
5007;DHT22;2522;50.972;11.046;2022-07-15T16:30:37;22.80;61.60
5007;DHT22;2522;50.972;11.046;2022-07-15T16:33:04;22.80;61.10
5007;DHT22;2522;50.972;11.046;2022-07-15T16:35:32;22.60;60.90
5007;DHT22;2522;50.972;11.046;2022-07-15T16:37:59;22.50;61.10
5007;DHT22;2522;50.972;11.046;2022-07-15T16:40:27;22.40;61.30
5007;DHT22;2522;50.972;11.046;2022-07-15T16:42:54;22.30;62.40
5007;DHT22;2522;50.972;11.046;2022-07-15T16:45:21;22.20;62.00
5007;DHT22;2522;50.972;11.046;2022-07-15T16:47:50;22.10;61.70
5007;DHT22;2522;50.972;11.046;2022-07-15T16:50:17;22.00;61.70
5007;DHT22;2522;50.972;11.046;2022-07-15T16:52:44;22.00;61.70
5007;DHT22;2522;50.972;11.046;2022-07-15T16:55:12;22.00;61.40
5007;DHT22;2522;50.972;11.046;2022-07-15T16:57:39;22.00;61.40
5007;DHT22;2522;50.972;11.046;2022-07-15T17:00:08;22.10;61.60
5007;DHT22;2522;50.972;11.046;2022-07-15T17:02:36;22.10;61.40
5007;DHT22;2522;50.972;11.046;2022-07-15T17:05:05;22.10;62.30
5007;DHT22;2522;50.972;11.046;2022-07-15T17:07:32;22.10;61.60
5007;DHT22;2522;50.972;11.046;2022-07-15T17:09:59;22.10;61.60
5007;DHT22;2522;50.972;11.046;2022-07-15T17:12:26;22.10;61.70
5007;DHT22;2522;50.972;11.046;2022-07-15T17:14:53;22.10;61.50
5007;DHT22;2522;50.972;11.046;2022-07-15T17:17:19;22.10;60.80
5007;DHT22;2522;50.972;11.046;2022-07-15T17:19:46;22.00;60.50
5007;DHT22;2522;50.972;11.046;2022-07-15T17:22:20;22.00;60.70
5007;DHT22;2522;50.972;11.046;2022-07-15T17:24:47;22.00;60.20
5007;DHT22;2522;50.972;11.046;2022-07-15T17:27:14;22.00;60.20
5007;DHT22;2522;50.972;11.046;2022-07-15T17:29:41;22.00;60.00
5007;DHT22;2522;50.972;11.046;2022-07-15T17:32:08;22.00;59.90
5007;DHT22;2522;50.972;11.046;2022-07-15T17:34:35;22.00;60.20
5007;DHT22;2522;50.972;11.046;2022-07-15T17:37:02;22.00;59.80
5007;DHT22;2522;50.972;11.046;2022-07-15T17:39:30;22.00;59.80
5007;DHT22;2522;50.972;11.046;2022-07-15T17:41:58;21.90;59.80
5007;DHT22;2522;50.972;11.046;2022-07-15T17:44:24;21.80;59.60
5007;DHT22;2522;50.972;11.046;2022-07-15T17:46:51;21.80;59.70
5007;DHT22;2522;50.972;11.046;2022-07-15T17:49:18;21.80;59.80
5007;DHT22;2522;50.972;11.046;2022-07-15T17:51:47;21.80;59.50
5007;DHT22;2522;50.972;11.046;2022-07-15T17:54:14;21.80;59.60
5007;DHT22;2522;50.972;11.046;2022-07-15T17:56:42;21.70;59.50
5007;DHT22;2522;50.972;11.046;2022-07-15T17:59:18;21.70;59.40
5007;DHT22;2522;50.972;11.046;2022-07-15T18:01:46;21.60;59.40
5007;DHT22;2522;50.972;11.046;2022-07-15T18:04:13;21.50;59.80
5007;DHT22;2522;50.972;11.046;2022-07-15T18:06:40;21.50;60.00
5007;DHT22;2522;50.972;11.046;2022-07-15T18:09:07;21.50;59.90
5007;DHT22;2522;50.972;11.046;2022-07-15T18:11:34;21.40;60.00
5007;DHT22;2522;50.972;11.046;2022-07-15T18:14:01;21.40;60.00
5007;DHT22;2522;50.972;11.046;2022-07-15T18:16:29;21.40;60.40
5007;DHT22;2522;50.972;11.046;2022-07-15T18:18:56;21.40;60.50
5007;DHT22;2522;50.972;11.046;2022-07-15T18:21:22;21.40;60.70
5007;DHT22;2522;50.972;11.046;2022-07-15T18:23:49;21.40;61.10
5007;DHT22;2522;50.972;11.046;2022-07-15T18:26:16;21.50;61.20
5007;DHT22;2522;50.972;11.046;2022-07-15T18:28:45;21.50;61.10
5007;DHT22;2522;50.972;11.046;2022-07-15T18:31:12;21.50;61.40
5007;DHT22;2522;50.972;11.046;2022-07-15T18:33:40;21.50;61.50
5007;DHT22;2522;50.972;11.046;2022-07-15T18:36:07;21.40;61.70
5007;DHT22;2522;50.972;11.046;2022-07-15T18:38:34;21.30;62.00
5007;DHT22;2522;50.972;11.046;2022-07-15T18:41:03;21.30;62.50
5007;DHT22;2522;50.972;11.046;2022-07-15T18:43:30;21.10;62.60
5007;DHT22;2522;50.972;11.046;2022-07-15T18:45:58;21.00;62.90
5007;DHT22;2522;50.972;11.046;2022-07-15T18:48:25;20.90;63.10
5007;DHT22;2522;50.972;11.046;2022-07-15T18:50:53;20.80;63.30
5007;DHT22;2522;50.972;11.046;2022-07-15T18:53:20;20.70;63.40
5007;DHT22;2522;50.972;11.046;2022-07-15T18:55:48;20.60;63.50
5007;DHT22;2522;50.972;11.046;2022-07-15T18:58:15;20.60;63.70
5007;DHT22;2522;50.972;11.046;2022-07-15T19:00:41;20.50;63.80
5007;DHT22;2522;50.972;11.046;2022-07-15T19:03:08;20.50;64.10
5007;DHT22;2522;50.972;11.046;2022-07-15T19:05:35;20.40;64.10
5007;DHT22;2522;50.972;11.046;2022-07-15T19:08:03;20.40;64.40
5007;DHT22;2522;50.972;11.046;2022-07-15T19:10:30;20.30;64.60
5007;DHT22;2522;50.972;11.046;2022-07-15T19:12:57;20.40;64.90
5007;DHT22;2522;50.972;11.046;2022-07-15T19:15:24;20.30;65.00
5007;DHT22;2522;50.972;11.046;2022-07-15T19:17:51;20.30;65.10
5007;DHT22;2522;50.972;11.046;2022-07-15T19:20:18;20.20;65.10
5007;DHT22;2522;50.972;11.046;2022-07-15T19:22:45;20.20;65.30
5007;DHT22;2522;50.972;11.046;2022-07-15T19:25:13;20.10;65.40
5007;DHT22;2522;50.972;11.046;2022-07-15T19:27:40;20.10;65.60